Airfield :
LOGIN :

Register | Disclaimer

   EN    FR    IT 

 










Legend :    VFR   Marginal VFR   IFR   Intensive IFR   Very Intensive IFR
Visi :
Ceiling :
>= 8 km
>= 3000ft
5 to 8 km
1000 to 3000 ft
1500m to 5 km
500 to 1000 ft
800 to 1500m
200 to 500 ft
< 800m
< 200 ft
Symbols :   Thunderstorms  Fog  Heavy snow  Heavy precipitations  Wind > 20 kt
SIGMETs :     Misc.  Thunderstorms  Icing  Turbulence  Mountain Waves  Volcanic Ashes






- Airport Elevation : 11 ft
- IATA code : MJV


LELC - Murcia San Javier

CURRENT METAR :
  • 311900Z 30004KT CAVOK 29/17 Q1007 NOSIG

EXPIRED METARs :
  • 311830Z 23003KT 190V260 CAVOK 31/16 Q1007 NOSIG
  • 311800Z 21006KT 170V260 CAVOK 31/16 Q1006 NOSIG
  • 311700Z 19012KT 160V230 9999 FEW050 30/18 Q1006 NOSIG
  • 311630Z 21011KT 170V230 9999 FEW050TCU 31/18 Q1006 NOSIG

TAF TAF LELC
Valid from the 31 at 18:00 until the 01 at 18:00 UTC


311700Z 3118/0118 31010KT CAVOK TX32/0115Z TN21/0106Z
BECMG 3122/3124 05008KT
BECMG 0111/0113 11010KT



MET'MAP, your aeronautical weather chart ! - Copyright ORBIFLY December 2007 - Disclaimer

ORBIFLY MET'MAP TEAM :

Programming & Development : Alexandra Zaïnal
Concept & original design : Baudouin d'Aumeries
Assistance for programming : Marc-Olivier Méhu
Technical & hardware support : Manuel Goepfert

Contact : metmap@orbifly.com




SOURCES & CREDITS :

   NOAA